sensor_id;sensor_type;location;lat;lon;timestamp;temperature;humidity
9973;DHT22;5027;53.560;10.062;2023-07-20T00:00:03;20.00;99.90
9973;DHT22;5027;53.560;10.062;2023-07-20T00:02:38;20.00;99.90
9973;DHT22;5027;53.560;10.062;2023-07-20T00:05:05;20.00;99.90
9973;DHT22;5027;53.560;10.062;2023-07-20T00:07:32;20.10;99.90
9973;DHT22;5027;53.560;10.062;2023-07-20T00:09:59;20.10;99.90
9973;DHT22;5027;53.560;10.062;2023-07-20T00:12:26;20.00;99.90
9973;DHT22;5027;53.560;10.062;2023-07-20T00:14:52;20.00;99.90
9973;DHT22;5027;53.560;10.062;2023-07-20T00:17:20;20.00;99.90
9973;DHT22;5027;53.560;10.062;2023-07-20T00:19:47;20.00;99.90
9973;DHT22;5027;53.560;10.062;2023-07-20T00:22:14;20.00;99.90
9973;DHT22;5027;53.560;10.062;2023-07-20T00:24:41;20.00;99.90
9973;DHT22;5027;53.560;10.062;2023-07-20T00:27:07;20.00;99.90
9973;DHT22;5027;53.560;10.062;2023-07-20T00:29:35;20.00;99.90
9973;DHT22;5027;53.560;10.062;2023-07-20T00:32:02;20.00;99.90
9973;DHT22;5027;53.560;10.062;2023-07-20T00:34:32;20.00;99.90
9973;DHT22;5027;53.560;10.062;2023-07-20T00:36:58;20.00;99.90
9973;DHT22;5027;53.560;10.062;2023-07-20T00:39:25;20.10;99.90
9973;DHT22;5027;53.560;10.062;2023-07-20T00:41:52;20.10;99.90
9973;DHT22;5027;53.560;10.062;2023-07-20T00:44:19;20.00;99.90
9973;DHT22;5027;53.560;10.062;2023-07-20T00:46:46;20.10;99.90
9973;DHT22;5027;53.560;10.062;2023-07-20T00:49:13;20.10;99.90
9973;DHT22;5027;53.560;10.062;2023-07-20T00:51:41;20.10;99.90
9973;DHT22;5027;53.560;10.062;2023-07-20T00:54:08;20.20;99.90
9973;DHT22;5027;53.560;10.062;2023-07-20T00:56:35;20.10;99.90
9973;DHT22;5027;53.560;10.062;2023-07-20T00:59:04;20.20;99.90
9973;DHT22;5027;53.560;10.062;2023-07-20T01:01:31;20.20;99.90
9973;DHT22;5027;53.560;10.062;2023-07-20T01:03:58;20.20;99.90
9973;DHT22;5027;53.560;10.062;2023-07-20T01:06:48;20.10;99.90
9973;DHT22;5027;53.560;10.062;2023-07-20T01:09:23;20.10;99.90
9973;DHT22;5027;53.560;10.062;2023-07-20T01:12:07;20.10;99.90
9973;DHT22;5027;53.560;10.062;2023-07-20T01:14:35;20.00;99.90
9973;DHT22;5027;53.560;10.062;2023-07-20T01:17:02;20.00;99.90
9973;DHT22;5027;53.560;10.062;2023-07-20T01:19:29;20.00;99.90
9973;DHT22;5027;53.560;10.062;2023-07-20T01:22:09;19.90;99.90
9973;DHT22;5027;53.560;10.062;2023-07-20T01:33:42;19.80;99.90
9973;DHT22;5027;53.560;10.062;2023-07-20T01:36:10;19.80;99.90
9973;DHT22;5027;53.560;10.062;2023-07-20T01:38:38;19.80;99.90
9973;DHT22;5027;53.560;10.062;2023-07-20T01:41:05;19.80;99.90
9973;DHT22;5027;53.560;10.062;2023-07-20T01:43:32;19.70;99.90
9973;DHT22;5027;53.560;10.062;2023-07-20T01:45:59;19.80;99.90
9973;DHT22;5027;53.560;10.062;2023-07-20T01:48:26;19.80;99.90
9973;DHT22;5027;53.560;10.062;2023-07-20T01:50:53;19.70;99.90
9973;DHT22;5027;53.560;10.062;2023-07-20T01:53:21;19.70;99.90
9973;DHT22;5027;53.560;10.062;2023-07-20T01:55:47;19.70;99.90
9973;DHT22;5027;53.560;10.062;2023-07-20T01:58:14;19.70;99.90
9973;DHT22;5027;53.560;10.062;2023-07-20T02:00:41;19.80;99.90
9973;DHT22;5027;53.560;10.062;2023-07-20T02:03:08;19.80;99.90
9973;DHT22;5027;53.560;10.062;2023-07-20T02:05:34;19.90;99.90
9973;DHT22;5027;53.560;10.062;2023-07-20T02:08:01;19.90;99.90
9973;DHT22;5027;53.560;10.062;2023-07-20T02:10:28;19.80;99.90
9973;DHT22;5027;53.560;10.062;2023-07-20T02:12:54;19.80;99.90
9973;DHT22;5027;53.560;10.062;2023-07-20T02:15:22;19.80;99.90
9973;DHT22;5027;53.560;10.062;2023-07-20T02:17:50;19.80;99.90
9973;DHT22;5027;53.560;10.062;2023-07-20T02:20:17;19.80;99.90
9973;DHT22;5027;53.560;10.062;2023-07-20T02:22:45;19.70;99.90
9973;DHT22;5027;53.560;10.062;2023-07-20T02:25:12;19.70;99.90
9973;DHT22;5027;53.560;10.062;2023-07-20T02:27:39;19.60;99.90
9973;DHT22;5027;53.560;10.062;2023-07-20T02:30:06;19.70;99.90
9973;DHT22;5027;53.560;10.062;2023-07-20T02:32:33;19.60;99.90
9973;DHT22;5027;53.560;10.062;2023-07-20T02:35:00;19.60;99.90
9973;DHT22;5027;53.560;10.062;2023-07-20T02:37:27;19.60;99.90
9973;DHT22;5027;53.560;10.062;2023-07-20T02:39:54;19.60;99.90
9973;DHT22;5027;53.560;10.062;2023-07-20T02:42:21;19.60;99.90
9973;DHT22;5027;53.560;10.062;2023-07-20T02:44:49;19.60;99.90
9973;DHT22;5027;53.560;10.062;2023-07-20T02:47:16;19.60;99.90
9973;DHT22;5027;53.560;10.062;2023-07-20T02:49:43;19.50;99.90
9973;DHT22;5027;53.560;10.062;2023-07-20T02:52:10;19.60;99.90
9973;DHT22;5027;53.560;10.062;2023-07-20T02:54:37;19.60;99.90
9973;DHT22;5027;53.560;10.062;2023-07-20T02:57:04;19.60;99.90
9973;DHT22;5027;53.560;10.062;2023-07-20T02:59:30;19.60;99.90
9973;DHT22;5027;53.560;10.062;2023-07-20T03:01:57;19.60;99.90
9973;DHT22;5027;53.560;10.062;2023-07-20T03:04:28;19.50;99.90
9973;DHT22;5027;53.560;10.062;2023-07-20T03:06:55;19.50;99.90
9973;DHT22;5027;53.560;10.062;2023-07-20T03:09:21;19.50;99.90
9973;DHT22;5027;53.560;10.062;2023-07-20T03:11:49;19.50;99.90
9973;DHT22;5027;53.560;10.062;2023-07-20T03:14:16;19.50;99.90
9973;DHT22;5027;53.560;10.062;2023-07-20T03:16:43;19.50;99.90
9973;DHT22;5027;53.560;10.062;2023-07-20T03:19:12;19.50;99.90
9973;DHT22;5027;53.560;10.062;2023-07-20T03:21:40;19.50;99.90
9973;DHT22;5027;53.560;10.062;2023-07-20T03:24:08;19.50;99.90
9973;DHT22;5027;53.560;10.062;2023-07-20T03:26:36;19.50;99.90
9973;DHT22;5027;53.560;10.062;2023-07-20T03:29:04;19.50;99.90
9973;DHT22;5027;53.560;10.062;2023-07-20T03:31:32;19.50;99.90
9973;DHT22;5027;53.560;10.062;2023-07-20T03:33:59;19.60;99.90
9973;DHT22;5027;53.560;10.062;2023-07-20T03:36:26;19.60;99.90
9973;DHT22;5027;53.560;10.062;2023-07-20T03:38:52;19.60;99.90
9973;DHT22;5027;53.560;10.062;2023-07-20T03:41:19;19.50;99.90
9973;DHT22;5027;53.560;10.062;2023-07-20T03:43:48;19.50;99.90
9973;DHT22;5027;53.560;10.062;2023-07-20T03:46:15;19.50;99.90
9973;DHT22;5027;53.560;10.062;2023-07-20T03:48:42;19.50;99.90
9973;DHT22;5027;53.560;10.062;2023-07-20T03:51:09;19.50;99.90
9973;DHT22;5027;53.560;10.062;2023-07-20T03:53:35;19.50;99.90
9973;DHT22;5027;53.560;10.062;2023-07-20T03:56:02;19.50;99.90
9973;DHT22;5027;53.560;10.062;2023-07-20T03:58:29;19.60;99.90
9973;DHT22;5027;53.560;10.062;2023-07-20T04:00:58;19.50;99.90
9973;DHT22;5027;53.560;10.062;2023-07-20T04:03:25;19.50;99.90
9973;DHT22;5027;53.560;10.062;2023-07-20T04:05:54;19.50;99.90
9973;DHT22;5027;53.560;10.062;2023-07-20T04:08:23;19.50;99.90
9973;DHT22;5027;53.560;10.062;2023-07-20T04:10:50;19.50;99.90
9973;DHT22;5027;53.560;10.062;2023-07-20T04:13:18;19.50;99.90
9973;DHT22;5027;53.560;10.062;2023-07-20T04:15:45;19.60;99.90
9973;DHT22;5027;53.560;10.062;2023-07-20T04:18:11;19.50;99.90
9973;DHT22;5027;53.560;10.062;2023-07-20T04:20:38;19.50;99.90
9973;DHT22;5027;53.560;10.062;2023-07-20T04:23:05;19.50;99.90
9973;DHT22;5027;53.560;10.062;2023-07-20T04:25:32;19.50;99.90
9973;DHT22;5027;53.560;10.062;2023-07-20T04:28:07;19.50;99.90
9973;DHT22;5027;53.560;10.062;2023-07-20T04:30:40;19.50;99.90
9973;DHT22;5027;53.560;10.062;2023-07-20T04:33:07;19.60;99.90
9973;DHT22;5027;53.560;10.062;2023-07-20T04:35:51;19.50;99.90
9973;DHT22;5027;53.560;10.062;2023-07-20T04:38:22;19.50;99.90
9973;DHT22;5027;53.560;10.062;2023-07-20T04:40:58;19.50;99.90
9973;DHT22;5027;53.560;10.062;2023-07-20T04:43:28;19.60;99.90
9973;DHT22;5027;53.560;10.062;2023-07-20T04:45:56;19.50;99.90
9973;DHT22;5027;53.560;10.062;2023-07-20T04:48:24;19.60;99.90
9973;DHT22;5027;53.560;10.062;2023-07-20T04:50:53;19.50;99.90
9973;DHT22;5027;53.560;10.062;2023-07-20T04:53:19;19.60;99.90
9973;DHT22;5027;53.560;10.062;2023-07-20T04:55:50;19.50;99.90
9973;DHT22;5027;53.560;10.062;2023-07-20T04:58:20;19.50;99.90
9973;DHT22;5027;53.560;10.062;2023-07-20T05:00:51;19.50;99.90
9973;DHT22;5027;53.560;10.062;2023-07-20T05:03:18;19.60;99.90
9973;DHT22;5027;53.560;10.062;2023-07-20T05:05:47;19.60;99.90
9973;DHT22;5027;53.560;10.062;2023-07-20T05:08:16;19.60;99.90
9973;DHT22;5027;53.560;10.062;2023-07-20T05:10:43;19.50;99.90
9973;DHT22;5027;53.560;10.062;2023-07-20T05:13:10;19.50;99.90
9973;DHT22;5027;53.560;10.062;2023-07-20T05:15:36;19.60;99.90
9973;DHT22;5027;53.560;10.062;2023-07-20T05:18:04;19.50;99.90
9973;DHT22;5027;53.560;10.062;2023-07-20T05:20:31;19.60;99.90
9973;DHT22;5027;53.560;10.062;2023-07-20T05:23:00;19.70;99.90
9973;DHT22;5027;53.560;10.062;2023-07-20T05:25:27;19.60;99.90
9973;DHT22;5027;53.560;10.062;2023-07-20T05:27:56;19.60;99.90
9973;DHT22;5027;53.560;10.062;2023-07-20T05:30:23;19.70;99.90
9973;DHT22;5027;53.560;10.062;2023-07-20T05:32:50;19.60;99.90
9973;DHT22;5027;53.560;10.062;2023-07-20T05:35:19;19.60;99.90
9973;DHT22;5027;53.560;10.062;2023-07-20T05:37:45;19.70;99.90
9973;DHT22;5027;53.560;10.062;2023-07-20T05:40:13;19.70;99.90
9973;DHT22;5027;53.560;10.062;2023-07-20T05:42:41;19.70;99.90
9973;DHT22;5027;53.560;10.062;2023-07-20T05:45:08;19.70;99.90
9973;DHT22;5027;53.560;10.062;2023-07-20T05:47:35;19.70;99.90
9973;DHT22;5027;53.560;10.062;2023-07-20T05:50:02;19.70;99.90
9973;DHT22;5027;53.560;10.062;2023-07-20T05:52:30;19.70;99.90
9973;DHT22;5027;53.560;10.062;2023-07-20T05:54:57;19.60;99.90
9973;DHT22;5027;53.560;10.062;2023-07-20T05:57:23;19.70;99.90
9973;DHT22;5027;53.560;10.062;2023-07-20T05:59:50;19.70;99.90
9973;DHT22;5027;53.560;10.062;2023-07-20T06:02:17;19.70;99.90
9973;DHT22;5027;53.560;10.062;2023-07-20T06:04:44;19.70;99.90
9973;DHT22;5027;53.560;10.062;2023-07-20T06:07:11;19.70;99.90
9973;DHT22;5027;53.560;10.062;2023-07-20T06:09:38;19.70;99.90
9973;DHT22;5027;53.560;10.062;2023-07-20T06:12:05;19.70;99.90
9973;DHT22;5027;53.560;10.062;2023-07-20T06:14:32;19.80;99.90
9973;DHT22;5027;53.560;10.062;2023-07-20T06:16:59;19.80;99.90
9973;DHT22;5027;53.560;10.062;2023-07-20T06:19:26;19.80;99.90
9973;DHT22;5027;53.560;10.062;2023-07-20T06:21:52;19.80;99.90
9973;DHT22;5027;53.560;10.062;2023-07-20T06:24:19;19.80;99.90
9973;DHT22;5027;53.560;10.062;2023-07-20T06:26:46;19.70;99.90
9973;DHT22;5027;53.560;10.062;2023-07-20T06:29:13;19.80;99.90
9973;DHT22;5027;53.560;10.062;2023-07-20T06:31:39;19.80;99.90
9973;DHT22;5027;53.560;10.062;2023-07-20T06:34:06;19.80;99.90
9973;DHT22;5027;53.560;10.062;2023-07-20T06:36:33;19.80;99.90
9973;DHT22;5027;53.560;10.062;2023-07-20T06:39:00;19.90;99.90
9973;DHT22;5027;53.560;10.062;2023-07-20T06:41:30;19.90;99.90
9973;DHT22;5027;53.560;10.062;2023-07-20T06:43:59;19.90;99.90
9973;DHT22;5027;53.560;10.062;2023-07-20T06:46:29;19.90;99.90
9973;DHT22;5027;53.560;10.062;2023-07-20T06:48:56;19.90;99.90
9973;DHT22;5027;53.560;10.062;2023-07-20T06:51:26;20.00;99.90
9973;DHT22;5027;53.560;10.062;2023-07-20T06:53:53;20.00;99.90
9973;DHT22;5027;53.560;10.062;2023-07-20T06:56:19;20.00;99.90
9973;DHT22;5027;53.560;10.062;2023-07-20T06:58:51;20.00;99.90
9973;DHT22;5027;53.560;10.062;2023-07-20T07:01:18;20.00;99.90
9973;DHT22;5027;53.560;10.062;2023-07-20T07:03:51;20.00;99.90
9973;DHT22;5027;53.560;10.062;2023-07-20T07:06:21;19.90;99.90
9973;DHT22;5027;53.560;10.062;2023-07-20T07:08:50;19.90;99.90
9973;DHT22;5027;53.560;10.062;2023-07-20T07:11:16;19.90;99.90
9973;DHT22;5027;53.560;10.062;2023-07-20T07:13:43;19.90;99.90
9973;DHT22;5027;53.560;10.062;2023-07-20T07:16:13;19.90;99.90
9973;DHT22;5027;53.560;10.062;2023-07-20T07:18:46;20.00;99.90
9973;DHT22;5027;53.560;10.062;2023-07-20T07:21:13;20.00;99.90
9973;DHT22;5027;53.560;10.062;2023-07-20T07:23:40;20.00;99.90
9973;DHT22;5027;53.560;10.062;2023-07-20T07:26:07;20.10;99.90
9973;DHT22;5027;53.560;10.062;2023-07-20T07:28:34;20.10;99.90
9973;DHT22;5027;53.560;10.062;2023-07-20T07:31:02;20.30;99.90
9973;DHT22;5027;53.560;10.062;2023-07-20T07:33:30;20.20;99.90
9973;DHT22;5027;53.560;10.062;2023-07-20T07:35:57;20.20;99.90
9973;DHT22;5027;53.560;10.062;2023-07-20T07:38:27;20.10;99.90
9973;DHT22;5027;53.560;10.062;2023-07-20T07:41:14;20.10;99.90
9973;DHT22;5027;53.560;10.062;2023-07-20T07:43:41;20.10;99.90
9973;DHT22;5027;53.560;10.062;2023-07-20T07:46:08;20.20;99.90
9973;DHT22;5027;53.560;10.062;2023-07-20T07:48:34;20.20;99.90
9973;DHT22;5027;53.560;10.062;2023-07-20T07:51:01;20.20;99.90
9973;DHT22;5027;53.560;10.062;2023-07-20T07:53:28;20.20;99.90
9973;DHT22;5027;53.560;10.062;2023-07-20T07:55:55;20.30;99.90
9973;DHT22;5027;53.560;10.062;2023-07-20T07:58:22;20.10;99.90
9973;DHT22;5027;53.560;10.062;2023-07-20T08:00:48;20.10;99.90
9973;DHT22;5027;53.560;10.062;2023-07-20T08:03:15;20.10;99.90
9973;DHT22;5027;53.560;10.062;2023-07-20T08:05:42;20.20;99.90
9973;DHT22;5027;53.560;10.062;2023-07-20T08:08:09;20.30;99.90
9973;DHT22;5027;53.560;10.062;2023-07-20T08:10:36;20.30;99.90
9973;DHT22;5027;53.560;10.062;2023-07-20T08:13:03;20.30;99.90
9973;DHT22;5027;53.560;10.062;2023-07-20T08:15:29;20.30;99.90
9973;DHT22;5027;53.560;10.062;2023-07-20T08:17:56;20.30;99.90
9973;DHT22;5027;53.560;10.062;2023-07-20T08:20:23;20.30;99.90
9973;DHT22;5027;53.560;10.062;2023-07-20T08:22:55;20.40;99.90
9973;DHT22;5027;53.560;10.062;2023-07-20T08:25:22;20.40;99.90
9973;DHT22;5027;53.560;10.062;2023-07-20T08:27:49;20.40;99.90
9973;DHT22;5027;53.560;10.062;2023-07-20T08:30:16;20.60;99.90
9973;DHT22;5027;53.560;10.062;2023-07-20T08:32:43;20.50;99.90
9973;DHT22;5027;53.560;10.062;2023-07-20T08:35:09;20.60;99.90
9973;DHT22;5027;53.560;10.062;2023-07-20T08:37:36;20.50;99.90
9973;DHT22;5027;53.560;10.062;2023-07-20T08:40:03;20.40;99.90
9973;DHT22;5027;53.560;10.062;2023-07-20T08:42:31;20.50;99.90
9973;DHT22;5027;53.560;10.062;2023-07-20T08:44:58;20.60;99.90
9973;DHT22;5027;53.560;10.062;2023-07-20T08:47:26;20.60;99.90
9973;DHT22;5027;53.560;10.062;2023-07-20T08:49:54;20.60;99.90
9973;DHT22;5027;53.560;10.062;2023-07-20T08:52:22;20.70;99.90
9973;DHT22;5027;53.560;10.062;2023-07-20T08:54:49;20.70;99.90
9973;DHT22;5027;53.560;10.062;2023-07-20T08:57:17;20.70;99.90
9973;DHT22;5027;53.560;10.062;2023-07-20T08:59:44;20.70;99.90
9973;DHT22;5027;53.560;10.062;2023-07-20T09:02:16;20.60;99.90
9973;DHT22;5027;53.560;10.062;2023-07-20T09:04:45;20.50;99.90
9973;DHT22;5027;53.560;10.062;2023-07-20T09:07:13;20.30;99.90
9973;DHT22;5027;53.560;10.062;2023-07-20T09:09:41;20.20;99.90
9973;DHT22;5027;53.560;10.062;2023-07-20T09:12:15;20.30;99.90
9973;DHT22;5027;53.560;10.062;2023-07-20T09:14:43;20.40;99.90
9973;DHT22;5027;53.560;10.062;2023-07-20T09:17:14;20.50;99.90
9973;DHT22;5027;53.560;10.062;2023-07-20T09:19:49;20.50;99.90
9973;DHT22;5027;53.560;10.062;2023-07-20T09:22:16;20.50;99.90
9973;DHT22;5027;53.560;10.062;2023-07-20T09:24:44;20.50;99.90
9973;DHT22;5027;53.560;10.062;2023-07-20T09:27:11;20.60;99.90
9973;DHT22;5027;53.560;10.062;2023-07-20T09:29:49;20.60;99.90
9973;DHT22;5027;53.560;10.062;2023-07-20T09:32:21;20.70;99.90
9973;DHT22;5027;53.560;10.062;2023-07-20T09:34:52;20.70;99.90
9973;DHT22;5027;53.560;10.062;2023-07-20T09:37:22;20.70;99.90
9973;DHT22;5027;53.560;10.062;2023-07-20T09:39:51;20.80;99.90
9973;DHT22;5027;53.560;10.062;2023-07-20T09:42:22;20.70;99.90
9973;DHT22;5027;53.560;10.062;2023-07-20T09:44:54;20.60;99.90
9973;DHT22;5027;53.560;10.062;2023-07-20T09:47:22;20.40;99.90
9973;DHT22;5027;53.560;10.062;2023-07-20T09:49:58;20.30;99.90
9973;DHT22;5027;53.560;10.062;2023-07-20T09:52:29;20.30;99.90
9973;DHT22;5027;53.560;10.062;2023-07-20T09:55:00;20.30;99.90
9973;DHT22;5027;53.560;10.062;2023-07-20T09:57:27;20.30;99.90
9973;DHT22;5027;53.560;10.062;2023-07-20T09:59:54;20.30;99.90
9973;DHT22;5027;53.560;10.062;2023-07-20T10:02:25;20.30;99.90
9973;DHT22;5027;53.560;10.062;2023-07-20T10:04:54;20.40;99.90
9973;DHT22;5027;53.560;10.062;2023-07-20T10:07:22;20.50;99.90
9973;DHT22;5027;53.560;10.062;2023-07-20T10:09:53;20.50;99.90
9973;DHT22;5027;53.560;10.062;2023-07-20T10:12:22;20.60;99.90
9973;DHT22;5027;53.560;10.062;2023-07-20T10:14:58;20.80;99.90
9973;DHT22;5027;53.560;10.062;2023-07-20T10:17:28;20.80;99.90
9973;DHT22;5027;53.560;10.062;2023-07-20T10:19:56;20.80;99.90
9973;DHT22;5027;53.560;10.062;2023-07-20T10:22:26;20.80;99.90
9973;DHT22;5027;53.560;10.062;2023-07-20T10:24:53;20.90;99.90
9973;DHT22;5027;53.560;10.062;2023-07-20T10:27:21;20.90;99.90
9973;DHT22;5027;53.560;10.062;2023-07-20T10:29:48;21.00;99.90
9973;DHT22;5027;53.560;10.062;2023-07-20T10:32:15;21.10;99.90
9973;DHT22;5027;53.560;10.062;2023-07-20T10:34:42;21.10;99.90
9973;DHT22;5027;53.560;10.062;2023-07-20T10:37:09;21.10;99.90
9973;DHT22;5027;53.560;10.062;2023-07-20T10:39:36;21.00;99.90
9973;DHT22;5027;53.560;10.062;2023-07-20T10:42:06;20.90;99.90
9973;DHT22;5027;53.560;10.062;2023-07-20T10:44:36;20.90;99.90
9973;DHT22;5027;53.560;10.062;2023-07-20T10:47:11;21.00;99.90
9973;DHT22;5027;53.560;10.062;2023-07-20T10:49:58;21.00;99.90
9973;DHT22;5027;53.560;10.062;2023-07-20T10:52:36;21.00;99.90
9973;DHT22;5027;53.560;10.062;2023-07-20T10:55:11;20.90;99.90
9973;DHT22;5027;53.560;10.062;2023-07-20T10:57:39;21.00;99.90
9973;DHT22;5027;53.560;10.062;2023-07-20T11:00:09;20.90;99.90
9973;DHT22;5027;53.560;10.062;2023-07-20T11:02:45;21.00;99.90
9973;DHT22;5027;53.560;10.062;2023-07-20T11:05:37;21.10;99.90
9973;DHT22;5027;53.560;10.062;2023-07-20T11:08:11;21.10;99.90
9973;DHT22;5027;53.560;10.062;2023-07-20T11:10:39;21.10;99.90
9973;DHT22;5027;53.560;10.062;2023-07-20T11:13:20;21.00;99.90
9973;DHT22;5027;53.560;10.062;2023-07-20T11:16:02;20.90;99.90
9973;DHT22;5027;53.560;10.062;2023-07-20T11:18:33;20.90;99.90
9973;DHT22;5027;53.560;10.062;2023-07-20T11:21:08;20.90;99.90
9973;DHT22;5027;53.560;10.062;2023-07-20T11:23:38;21.00;99.90
9973;DHT22;5027;53.560;10.062;2023-07-20T11:26:04;21.00;99.90
9973;DHT22;5027;53.560;10.062;2023-07-20T11:28:31;21.10;99.90
9973;DHT22;5027;53.560;10.062;2023-07-20T11:30:58;21.10;99.90
9973;DHT22;5027;53.560;10.062;2023-07-20T11:33:25;21.10;99.90
9973;DHT22;5027;53.560;10.062;2023-07-20T11:35:51;21.10;99.90
9973;DHT22;5027;53.560;10.062;2023-07-20T11:38:19;21.10;99.90
9973;DHT22;5027;53.560;10.062;2023-07-20T11:40:46;21.10;99.90
9973;DHT22;5027;53.560;10.062;2023-07-20T11:43:14;21.10;99.90
9973;DHT22;5027;53.560;10.062;2023-07-20T11:45:45;21.10;99.90
9973;DHT22;5027;53.560;10.062;2023-07-20T11:48:18;21.10;99.90
9973;DHT22;5027;53.560;10.062;2023-07-20T11:50:44;21.10;99.90
9973;DHT22;5027;53.560;10.062;2023-07-20T11:53:11;21.40;99.90
9973;DHT22;5027;53.560;10.062;2023-07-20T11:55:40;21.50;99.90
9973;DHT22;5027;53.560;10.062;2023-07-20T11:58:08;21.60;99.90
9973;DHT22;5027;53.560;10.062;2023-07-20T12:00:38;21.70;99.90
9973;DHT22;5027;53.560;10.062;2023-07-20T12:03:06;21.50;99.90
9973;DHT22;5027;53.560;10.062;2023-07-20T12:05:38;21.60;99.90
9973;DHT22;5027;53.560;10.062;2023-07-20T12:08:25;21.40;99.90
9973;DHT22;5027;53.560;10.062;2023-07-20T12:10:52;21.30;99.90
9973;DHT22;5027;53.560;10.062;2023-07-20T12:13:21;21.30;99.90
9973;DHT22;5027;53.560;10.062;2023-07-20T12:15:48;21.30;99.90
9973;DHT22;5027;53.560;10.062;2023-07-20T12:18:15;21.30;99.90
9973;DHT22;5027;53.560;10.062;2023-07-20T12:20:42;21.40;99.90
9973;DHT22;5027;53.560;10.062;2023-07-20T12:23:11;21.70;99.90
9973;DHT22;5027;53.560;10.062;2023-07-20T12:25:41;21.70;99.90
9973;DHT22;5027;53.560;10.062;2023-07-20T12:28:10;21.70;99.90
9973;DHT22;5027;53.560;10.062;2023-07-20T12:30:38;21.70;99.90
9973;DHT22;5027;53.560;10.062;2023-07-20T12:33:05;21.70;99.90
9973;DHT22;5027;53.560;10.062;2023-07-20T12:35:33;21.70;99.90
9973;DHT22;5027;53.560;10.062;2023-07-20T12:38:00;21.60;99.90
9973;DHT22;5027;53.560;10.062;2023-07-20T12:40:27;21.60;99.90
9973;DHT22;5027;53.560;10.062;2023-07-20T12:42:53;21.50;99.90
9973;DHT22;5027;53.560;10.062;2023-07-20T12:45:20;21.60;99.90
9973;DHT22;5027;53.560;10.062;2023-07-20T12:47:48;21.60;99.90
9973;DHT22;5027;53.560;10.062;2023-07-20T12:50:15;21.60;99.90
9973;DHT22;5027;53.560;10.062;2023-07-20T12:52:42;21.60;99.90
9973;DHT22;5027;53.560;10.062;2023-07-20T12:55:09;21.60;99.90
9973;DHT22;5027;53.560;10.062;2023-07-20T12:57:37;21.70;99.90
9973;DHT22;5027;53.560;10.062;2023-07-20T13:00:05;21.70;99.90
9973;DHT22;5027;53.560;10.062;2023-07-20T13:02:35;21.70;99.90
9973;DHT22;5027;53.560;10.062;2023-07-20T13:05:03;21.60;99.90
9973;DHT22;5027;53.560;10.062;2023-07-20T13:07:31;21.50;99.90
9973;DHT22;5027;53.560;10.062;2023-07-20T13:10:02;21.50;99.90
9973;DHT22;5027;53.560;10.062;2023-07-20T13:12:32;21.60;99.90
9973;DHT22;5027;53.560;10.062;2023-07-20T13:14:59;21.60;99.90
9973;DHT22;5027;53.560;10.062;2023-07-20T13:17:29;21.50;99.90
9973;DHT22;5027;53.560;10.062;2023-07-20T13:19:56;21.60;99.90
9973;DHT22;5027;53.560;10.062;2023-07-20T13:22:22;21.80;99.90
9973;DHT22;5027;53.560;10.062;2023-07-20T13:24:50;21.80;99.90
9973;DHT22;5027;53.560;10.062;2023-07-20T13:27:17;21.80;99.90
9973;DHT22;5027;53.560;10.062;2023-07-20T13:29:45;21.90;99.90
9973;DHT22;5027;53.560;10.062;2023-07-20T13:32:14;21.90;99.90
9973;DHT22;5027;53.560;10.062;2023-07-20T13:34:42;21.90;99.90
9973;DHT22;5027;53.560;10.062;2023-07-20T13:37:11;21.90;99.90
9973;DHT22;5027;53.560;10.062;2023-07-20T13:39:39;21.80;99.90
9973;DHT22;5027;53.560;10.062;2023-07-20T13:42:06;21.80;99.90
9973;DHT22;5027;53.560;10.062;2023-07-20T13:44:33;21.80;99.90
9973;DHT22;5027;53.560;10.062;2023-07-20T13:47:01;21.80;99.90
9973;DHT22;5027;53.560;10.062;2023-07-20T13:49:31;21.80;99.90
9973;DHT22;5027;53.560;10.062;2023-07-20T13:52:02;21.90;99.90
9973;DHT22;5027;53.560;10.062;2023-07-20T13:54:32;21.80;99.90
9973;DHT22;5027;53.560;10.062;2023-07-20T13:56:58;21.90;99.90
9973;DHT22;5027;53.560;10.062;2023-07-20T13:59:25;21.90;99.90
9973;DHT22;5027;53.560;10.062;2023-07-20T14:01:52;21.90;99.90
9973;DHT22;5027;53.560;10.062;2023-07-20T14:04:39;21.90;99.90
9973;DHT22;5027;53.560;10.062;2023-07-20T14:07:06;22.00;99.90
9973;DHT22;5027;53.560;10.062;2023-07-20T14:09:33;22.00;99.90
9973;DHT22;5027;53.560;10.062;2023-07-20T14:12:00;21.90;99.90
9973;DHT22;5027;53.560;10.062;2023-07-20T14:14:30;21.90;99.90
9973;DHT22;5027;53.560;10.062;2023-07-20T14:16:56;21.80;99.90
9973;DHT22;5027;53.560;10.062;2023-07-20T14:19:23;21.80;99.90
9973;DHT22;5027;53.560;10.062;2023-07-20T14:21:50;21.90;99.90
9973;DHT22;5027;53.560;10.062;2023-07-20T14:24:17;21.90;99.90
9973;DHT22;5027;53.560;10.062;2023-07-20T14:26:45;21.90;99.90
9973;DHT22;5027;53.560;10.062;2023-07-20T14:29:14;21.90;99.90
9973;DHT22;5027;53.560;10.062;2023-07-20T14:31:41;21.90;99.90
9973;DHT22;5027;53.560;10.062;2023-07-20T14:34:08;21.90;99.90
9973;DHT22;5027;53.560;10.062;2023-07-20T14:36:35;21.90;99.90
9973;DHT22;5027;53.560;10.062;2023-07-20T14:39:02;21.90;99.90
9973;DHT22;5027;53.560;10.062;2023-07-20T14:41:30;21.90;99.90
9973;DHT22;5027;53.560;10.062;2023-07-20T14:48:22;22.00;99.90
9973;DHT22;5027;53.560;10.062;2023-07-20T14:50:49;21.90;99.90
9973;DHT22;5027;53.560;10.062;2023-07-20T15:06:10;21.70;99.90
9973;DHT22;5027;53.560;10.062;2023-07-20T15:08:38;21.70;99.90
9973;DHT22;5027;53.560;10.062;2023-07-20T15:11:04;21.70;99.90
9973;DHT22;5027;53.560;10.062;2023-07-20T15:13:31;21.70;99.90
9973;DHT22;5027;53.560;10.062;2023-07-20T15:15:58;21.60;99.90
9973;DHT22;5027;53.560;10.062;2023-07-20T15:18:24;21.60;99.90
9973;DHT22;5027;53.560;10.062;2023-07-20T15:21:07;21.60;99.90
9973;DHT22;5027;53.560;10.062;2023-07-20T15:23:33;21.60;99.90
9973;DHT22;5027;53.560;10.062;2023-07-20T15:26:01;21.70;99.90
9973;DHT22;5027;53.560;10.062;2023-07-20T15:28:27;21.60;99.90
9973;DHT22;5027;53.560;10.062;2023-07-20T15:31:04;21.60;99.80
9973;DHT22;5027;53.560;10.062;2023-07-20T15:33:31;21.60;99.80
9973;DHT22;5027;53.560;10.062;2023-07-20T15:35:58;21.60;99.90
9973;DHT22;5027;53.560;10.062;2023-07-20T15:38:25;21.70;99.90
9973;DHT22;5027;53.560;10.062;2023-07-20T15:40:52;21.80;99.90
9973;DHT22;5027;53.560;10.062;2023-07-20T15:43:20;21.90;99.90
9973;DHT22;5027;53.560;10.062;2023-07-20T15:45:48;22.00;99.90
9973;DHT22;5027;53.560;10.062;2023-07-20T15:48:18;22.00;99.90
9973;DHT22;5027;53.560;10.062;2023-07-20T15:50:49;21.90;99.90
9973;DHT22;5027;53.560;10.062;2023-07-20T15:53:16;21.80;99.90
9973;DHT22;5027;53.560;10.062;2023-07-20T15:55:43;22.00;99.90
9973;DHT22;5027;53.560;10.062;2023-07-20T15:58:10;22.00;99.90
9973;DHT22;5027;53.560;10.062;2023-07-20T16:00:36;22.00;99.90
9973;DHT22;5027;53.560;10.062;2023-07-20T16:03:04;22.00;99.90
9973;DHT22;5027;53.560;10.062;2023-07-20T16:05:32;21.90;99.90
9973;DHT22;5027;53.560;10.062;2023-07-20T16:08:02;21.80;99.90
9973;DHT22;5027;53.560;10.062;2023-07-20T16:10:31;21.90;99.90
9973;DHT22;5027;53.560;10.062;2023-07-20T16:12:57;21.90;99.90
9973;DHT22;5027;53.560;10.062;2023-07-20T16:15:24;21.90;99.90
9973;DHT22;5027;53.560;10.062;2023-07-20T16:17:55;21.90;99.90